Latest Weather Observations for Arlington Reef

IDQ60801

Issued at 11:43 pm EST Wednesday 25 May 2022 (issued every 10 minutes, with the page automatically refreshed every 10 minutes)

About weather observations | Map of weather stations | Latest weather observations for QLD | Other Formats
Station Details ID: 200879 Name: ARLINGTON REEF Lat: -16.72 Lon: 146.11 Height: 0.0 m
Data from the previous 72 hours. | See also: Recent months at Arlington Reef
Date/Time
EST
Temp
°C
App
Temp
°C
Dew
Point
°C
Rel
Hum
%
Delta-T
°C
Wind Press
QNH
hPa
Press
MSL
hPa
Rain since
9am
mm
Dir  Spd
km/h
Gust
km/h
Spd
kts
Gust
kts
25/11:30pm - - - - - SSE 26 32 14 17 1012.5 1012.5 -
25/11:00pm - - - - - SSE 28 33 15 18 1012.9 1012.9 -
25/10:30pm - - - - - SSE 30 35 16 19 1013.2 1013.2 -
25/10:00pm - - - - - SSE 32 37 17 20 1012.9 1012.9 -
25/09:30pm - - - - - SSE 32 35 17 19 1013.1 1013.1 -
25/09:00pm - - - - - SSE 32 35 17 19 1013.1 1013.1 -
25/08:30pm - - - - - SSE 33 37 18 20 1013.1 1013.1 -
25/08:00pm - - - - - SSE 33 39 18 21 1013.1 1013.1 -
25/07:30pm - - - - - SSE 22 28 12 15 1012.9 1012.9 -
25/07:00pm - - - - - SSE 26 32 14 17 1012.7 1012.7 -
25/06:30pm - - - - - SE 26 30 14 16 1012.7 1012.7 -
25/06:00pm - - - - - SE 26 32 14 17 1012.6 1012.6 -
25/05:30pm - - - - - SE 24 28 13 15 1012.5 1012.5 -
25/05:00pm - - - - - SE 28 32 15 17 1012.2 1012.2 -
25/04:30pm - - - - - SE 30 35 16 19 1012.0 1012.0 -
25/04:00pm - - - - - SE 26 28 14 15 1012.0 1012.0 -
25/03:30pm - - - - - SSE 26 33 14 18 1012.0 1012.0 -
25/03:00pm - - - - - SSE 30 33 16 18 1012.1 1012.1 -
25/02:30pm - - - - - SSE 32 37 17 20 1012.2 1012.2 -
25/02:00pm - - - - - S 30 35 16 19 1012.3 1012.3 -
25/01:30pm - - - - - S 30 35 16 19 1012.6 1012.6 -
25/01:00pm - - - - - S 32 35 17 19 1012.8 1012.8 -
25/12:30pm - - - - - S 28 32 15 17 1013.4 1013.4 -
25/12:00pm - - - - - S 30 33 16 18 1013.7 1013.7 -
25/11:30am - - - - - S 30 33 16 18 1014.2 1014.2 -
25/11:00am - - - - - S 30 35 16 19 1014.3 1014.3 -
25/10:30am - - - - - S 28 30 15 16 1014.8 1014.8 -
25/10:00am - - - - - S 28 32 15 17 1014.9 1014.9 -
25/09:30am - - - - - SSE 30 35 16 19 1015.1 1015.1 -
25/09:00am - - - - - S 24 30 13 16 1015.0 1015.0 -
25/08:30am - - - - - S 24 28 13 15 1015.0 1015.0 -
25/08:00am - - - - - S 24 30 13 16 1014.9 1014.9 -
25/07:30am - - - - - SSE 26 32 14 17 1014.6 1014.6 -
25/07:00am - - - - - SSE 28 33 15 18 1014.1 1014.1 -
25/06:30am - - - - - S 22 30 12 16 1013.8 1013.8 -
25/06:00am - - - - - SSE 26 32 14 17 1013.6 1013.6 -
25/05:30am - - - - - SE 26 33 14 18 1013.6 1013.6 -
25/05:00am - - - - - SE 26 32 14 17 1013.4 1013.4 -
25/04:30am - - - - - SSE 26 32 14 17 1013.2 1013.2 -
25/04:00am - - - - - SSE 26 30 14 16 1013.3 1013.3 -
25/03:30am - - - - - SSE 26 32 14 17 1013.4 1013.4 -
25/03:00am - - - - - SE 26 33 14 18 1013.7 1013.7 -
25/02:30am - - - - - SE 26 30 14 16 1013.8 1013.8 -
25/02:00am - - - - - SE 26 30 14 16 1014.1 1014.1 -
25/01:30am - - - - - SSE 26 30 14 16 1014.1 1014.1 -
25/01:00am - - - - - SSE 28 35 15 19 1014.3 1014.3 -
25/12:30am - - - - - SSE 28 35 15 19 1014.5 1014.5 -
25/12:00am - - - - - SSE 26 32 14 17 1014.8 1014.8 -
 
Date/Time
EST
Temp
°C
App
Temp
°C
Dew
Point
°C
Rel
Hum
%
Delta-T
°C
Wind Press
QNH
hPa
Press
MSL
hPa
Rain since
9am
mm
Dir  Spd
km/h
Gust
km/h
Spd
kts
Gust
kts
24/11:30pm - - - - - SSE 26 32 14 17 1015.1 1015.1 -
24/11:00pm - - - - - SSE 26 32 14 17 1015.5 1015.5 -
24/10:30pm - - - - - SSE 24 30 13 16 1015.6 1015.6 -
24/10:00pm - - - - - SSE 26 32 14 17 1015.5 1015.5 -
24/09:30pm - - - - - SE 26 32 14 17 1015.5 1015.5 -
24/09:00pm - - - - - SSE 26 30 14 16 1015.6 1015.6 -
24/08:30pm - - - - - SSE 28 35 15 19 1015.5 1015.5 -
24/08:00pm - - - - - SSE 30 33 16 18 1015.3 1015.3 -
24/07:30pm - - - - - SSE 28 35 15 19 1014.9 1014.9 -
24/07:00pm - - - - - SE 22 30 12 16 1014.5 1014.5 -
24/06:30pm - - - - - SE 13 19 7 10 1014.8 1014.8 -
24/06:00pm - - - - - SSE 28 33 15 18 1014.5 1014.5 -
24/05:30pm - - - - - S 37 43 20 23 1013.9 1013.9 -
24/05:00pm - - - - - S 35 41 19 22 1013.2 1013.2 -
24/04:30pm - - - - - SSW 28 32 15 17 1013.0 1013.0 -
24/04:00pm - - - - - SSW 32 37 17 20 1012.9 1012.9 -
24/03:30pm - - - - - S 32 37 17 20 1012.7 1012.7 -
24/03:00pm - - - - - S 35 41 19 22 1012.9 1012.9 -
24/02:30pm - - - - - SSW 39 46 21 25 1012.4 1012.4 -
24/02:00pm - - - - - SSW 33 39 18 21 1012.6 1012.6 -
24/01:30pm - - - - - SSW 30 35 16 19 1013.0 1013.0 -
24/01:00pm - - - - - SSW 30 33 16 18 1013.5 1013.5 -
24/12:30pm - - - - - SSW 28 32 15 17 1014.0 1014.0 -
24/12:00pm - - - - - SSW 30 35 16 19 1014.1 1014.1 -
24/11:30am - - - - - SSW 30 35 16 19 1014.4 1014.4 -
24/11:00am - - - - - SSW 32 35 17 19 1014.8 1014.8 -
24/10:30am - - - - - S 35 41 19 22 1014.8 1014.8 -
24/10:00am - - - - - S 35 39 19 21 1015.0 1015.0 -
24/09:30am - - - - - S 35 39 19 21 1015.0 1015.0 -
24/09:00am - - - - - SSW 28 33 15 18 1014.9 1014.9 -
24/08:30am - - - - - SSW 30 35 16 19 1014.7 1014.7 -
24/08:00am - - - - - S 28 33 15 18 1014.6 1014.6 -
24/07:30am - - - - - SSW 30 35 16 19 1014.2 1014.2 -
24/07:00am - - - - - SSW 26 30 14 16 1014.3 1014.3 -
24/06:30am - - - - - S 20 32 11 17 1014.2 1014.2 -
24/06:00am - - - - - SSE 22 32 12 17 1014.3 1014.3 -
24/05:30am - - - - - S 24 32 13 17 1014.0 1014.0 -
24/05:00am - - - - - SSW 28 32 15 17 1013.6 1013.6 -
24/04:30am - - - - - SSW 28 35 15 19 1013.4 1013.4 -
24/04:00am - - - - - S 26 33 14 18 1013.3 1013.3 -
24/03:30am - - - - - S 32 37 17 20 1013.2 1013.2 -
24/03:00am - - - - - SSW 28 33 15 18 1013.2 1013.2 -
24/02:30am - - - - - SW 24 30 13 16 1013.5 1013.5 -
24/02:00am - - - - - ESE 22 30 12 16 1013.7 1013.7 -
24/01:30am - - - - - SE 9 11 5 6 1014.0 1014.0 -
24/01:00am - - - - - ESE 13 15 7 8 1014.3 1014.3 -
24/12:30am - - - - - ESE 20 24 11 13 1014.4 1014.4 -
24/12:00am - - - - - ESE 24 28 13 15 1014.5 1014.5 -
 
Date/Time
EST
Temp
°C
App
Temp
°C
Dew
Point
°C
Rel
Hum
%
Delta-T
°C
Wind Press
QNH
hPa
Press
MSL
hPa
Rain since
9am
mm
Dir  Spd
km/h
Gust
km/h
Spd
kts
Gust
kts
23/11:30pm - - - - - SE 22 26 12 14 1014.7 1014.7 -
23/11:00pm - - - - - SE 24 26 13 14 1014.8 1014.8 -
23/10:30pm - - - - - SE 30 37 16 20 1014.9 1014.9 -
23/10:00pm - - - - - SSE 26 30 14 16 1015.0 1015.0 -
23/09:30pm - - - - - SE 30 35 16 19 1015.1 1015.1 -
23/09:00pm - - - - - SSE 32 37 17 20 1015.0 1015.0 -
23/08:30pm - - - - - SSE 32 37 17 20 1015.1 1015.1 -
23/08:00pm - - - - - SSE 28 33 15 18 1014.9 1014.9 -
23/07:30pm - - - - - SSE 32 37 17 20 1014.7 1014.7 -
23/07:00pm - - - - - SSE 35 43 19 23 1014.1 1014.1 -
23/06:30pm - - - - - SSE 37 43 20 23 1014.0 1014.0 -
23/06:00pm - - - - - SSE 33 41 18 22 1013.8 1013.8 -
23/05:30pm - - - - - SSE 33 39 18 21 1013.4 1013.4 -
23/05:00pm - - - - - S 37 44 20 24 1013.1 1013.1 -
23/04:30pm - - - - - SSE 35 41 19 22 1012.9 1012.9 -
23/04:00pm - - - - - S 37 43 20 23 1012.5 1012.5 -
23/03:30pm - - - - - SSE 33 39 18 21 1012.3 1012.3 -
23/03:00pm - - - - - SSE 39 46 21 25 1012.4 1012.4 -
23/02:30pm - - - - - S 35 41 19 22 1013.0 1013.0 -
23/02:00pm - - - - - S 37 43 20 23 1013.1 1013.1 -
23/01:30pm - - - - - S 35 44 19 24 1013.4 1013.4 -
23/01:00pm - - - - - S 33 37 18 20 1013.8 1013.8 -
23/12:30pm - - - - - SSE 33 48 18 26 1014.0 1014.0 -
23/12:19pm - - - - - S 33 57 18 31 1014.0 1014.0 -
23/12:00pm - - - - - S 33 39 18 21 1014.0 1014.0 -
23/11:30am - - - - - S 28 33 15 18 1014.6 1014.6 -
23/11:00am - - - - - S 30 35 16 19 1015.0 1015.0 -
23/10:30am - - - - - S 30 39 16 21 1015.3 1015.3 -
23/10:00am - - - - - S 28 32 15 17 1015.5 1015.5 -
23/09:30am - - - - - SE 33 48 18 26 1015.6 1015.6 -
23/09:22am - - - - - SSE 39 48 21 26 1015.5 1015.5 -
23/09:00am - - - - - S 37 43 20 23 1014.7 1014.7 -
23/08:30am - - - - - S 39 44 21 24 1014.4 1014.4 -
23/08:00am - - - - - S 35 44 19 24 1014.2 1014.2 -
23/07:30am - - - - - S 35 43 19 23 1014.2 1014.2 -
23/07:00am - - - - - S 33 39 18 21 1013.7 1013.7 -
23/06:30am - - - - - S 35 41 19 22 1013.0 1013.0 -
23/06:00am - - - - - S 35 43 19 23 1012.9 1012.9 -
23/05:30am - - - - - S 35 39 19 21 1012.7 1012.7 -
23/05:00am - - - - - S 35 43 19 23 1012.4 1012.4 -
23/04:30am - - - - - S 35 41 19 22 1012.2 1012.2 -
23/04:00am - - - - - S 32 37 17 20 1012.1 1012.1 -
23/03:30am - - - - - S 32 35 17 19 1012.0 1012.0 -
23/03:00am - - - - - S 30 35 16 19 1012.2 1012.2 -
23/02:30am - - - - - S 32 39 17 21 1012.5 1012.5 -
23/02:00am - - - - - S 32 35 17 19 1012.7 1012.7 -
23/01:30am - - - - - S 30 35 16 19 1012.8 1012.8 -
23/01:00am - - - - - S 32 39 17 21 1013.0 1013.0 -
23/12:30am - - - - - S 33 41 18 22 1013.0 1013.0 -
23/12:00am - - - - - S 35 43 19 23 1013.1 1013.1 -

Other formats

Comma delimited format used in spreadsheet applications
http://www.bom.gov.au/fwo/IDQ60801/IDQ60801.94284.axf

JavaScript Object Notation format (JSON) in row-major order
http://www.bom.gov.au/fwo/IDQ60801/IDQ60801.94284.json

Data quality

Most of these data are generated automatically and are frequently updated. Quality checks on data are not normally performed. It is possible for incorrect values to appear. Refer to information at About Latest Weather Observations and please check the disclaimer before using these data.